createdAt,value
2018-06-17T13:44:15.068Z,6.50
2018-06-17T13:46:45.980Z,16.90
2018-06-17T13:49:15.220Z,5.97
2018-06-17T13:51:44.507Z,6.77
2018-06-17T13:54:13.761Z,7.73
2018-06-17T13:56:42.938Z,5.70
2018-06-17T13:59:12.123Z,6.25
2018-06-17T14:01:41.428Z,6.37
2018-06-17T14:04:10.589Z,7.77
2018-06-17T14:06:39.785Z,9.33
2018-06-17T14:09:10.095Z,5.90
2018-06-17T14:11:39.242Z,6.63
2018-06-17T14:14:08.485Z,8.77
2018-06-17T14:16:37.645Z,7.50
2018-06-17T14:19:07.542Z,7.40
2018-06-17T14:21:36.771Z,6.97
2018-06-17T14:24:06.034Z,6.07
2018-06-17T14:26:35.219Z,6.63
2018-06-17T14:29:04.433Z,6.30
2018-06-17T14:31:33.700Z,6.27
2018-06-17T14:34:02.830Z,6.20
2018-06-17T14:36:32.062Z,6.93
2018-06-17T14:39:01.264Z,6.50
2018-06-17T14:41:30.428Z,7.20
2018-06-17T14:44:04.824Z,5.50
2018-06-17T14:47:37.719Z,6.27
2018-06-17T14:50:12.078Z,11.00
2018-06-17T14:52:46.897Z,5.83
2018-06-17T14:55:16.167Z,6.08
2018-06-17T14:57:45.464Z,6.00
2018-06-17T15:00:14.726Z,5.57
2018-06-17T15:02:44.292Z,5.47
2018-06-17T15:05:13.503Z,5.80
2018-06-17T15:07:42.610Z,5.73
2018-06-17T15:10:11.781Z,5.80
2018-06-17T15:12:41.033Z,5.77
2018-06-17T15:15:10.183Z,5.57
2018-06-17T15:17:39.433Z,5.90
2018-06-17T15:20:08.718Z,11.63
2018-06-17T15:22:37.829Z,5.77
2018-06-17T15:25:07.125Z,6.07
2018-06-17T15:27:36.356Z,5.03
2018-06-17T15:30:05.878Z,6.37
2018-06-17T15:32:40.192Z,5.37
2018-06-17T15:35:14.852Z,5.43
2018-06-17T15:37:49.076Z,5.57
2018-06-17T15:40:18.306Z,5.20
2018-06-17T15:42:47.462Z,7.30
2018-06-17T15:45:16.792Z,8.10
2018-06-17T15:47:45.967Z,7.00
2018-06-17T15:50:15.209Z,9.90
2018-06-17T15:52:44.416Z,5.00
2018-06-17T15:55:13.672Z,5.50
2018-06-17T15:57:42.730Z,5.40
2018-06-17T16:00:11.965Z,5.10
2018-06-17T16:02:53.025Z,5.30
2018-06-17T16:05:22.208Z,9.10
2018-06-17T16:07:51.659Z,5.37
2018-06-17T16:10:20.871Z,9.63
2018-06-17T16:12:55.395Z,5.45
2018-06-17T16:15:30.021Z,5.30
2018-06-17T16:18:04.354Z,4.97
2018-06-17T16:20:38.708Z,17.37
2018-06-17T16:23:08.113Z,5.93
2018-06-17T16:25:37.269Z,5.40
2018-06-17T16:28:06.458Z,5.73
2018-06-17T16:30:35.643Z,6.03
2018-06-17T16:33:04.885Z,5.40
2018-06-17T16:35:34.190Z,5.80
2018-06-17T16:38:03.405Z,6.20
2018-06-17T16:40:32.641Z,5.87
2018-06-17T16:43:01.815Z,8.47
2018-06-17T16:45:31.005Z,5.27
2018-06-17T16:48:00.266Z,6.23
2018-06-17T16:50:29.434Z,5.90
2018-06-17T16:54:07.480Z,6.07
2018-06-17T16:56:41.716Z,5.50
2018-06-17T16:59:16.046Z,6.22
2018-06-17T17:01:45.199Z,6.13
2018-06-17T17:04:14.458Z,6.77
2018-06-17T17:06:43.628Z,6.30
2018-06-17T17:09:12.785Z,6.73
2018-06-17T17:11:42.209Z,5.77
2018-06-17T17:14:12.578Z,6.10
2018-06-17T17:16:42.453Z,6.50
2018-06-17T17:19:11.630Z,7.60
2018-06-17T17:21:40.859Z,6.17
2018-06-17T17:24:10.053Z,7.00
2018-06-17T17:26:39.249Z,6.20
2018-06-17T17:29:08.598Z,6.00
2018-06-17T17:31:42.961Z,7.85
2018-06-17T17:34:17.338Z,6.50
2018-06-17T17:36:51.853Z,7.30
2018-06-17T17:39:26.198Z,6.92
2018-06-17T17:41:55.396Z,6.67
2018-06-17T17:44:24.591Z,6.97
2018-06-17T17:46:58.973Z,6.60
2018-06-17T17:49:28.237Z,6.60
2018-06-17T17:51:57.403Z,9.65
2018-06-17T17:54:26.611Z,6.93
2018-06-17T17:56:55.835Z,8.33
2018-06-17T17:59:25.007Z,7.00
2018-06-17T18:01:54.154Z,7.47
2018-06-17T18:04:23.338Z,7.27
2018-06-17T18:06:52.529Z,7.40
2018-06-17T18:09:21.705Z,7.47
2018-06-17T18:11:50.950Z,6.67
2018-06-17T18:14:20.139Z,7.40
2018-06-17T18:16:49.311Z,7.60
2018-06-17T18:19:18.496Z,7.92
2018-06-17T18:21:47.706Z,7.07
2018-06-17T18:24:16.986Z,7.00
2018-06-17T18:27:52.840Z,7.53
2018-06-17T18:31:34.008Z,6.80
2018-06-17T18:34:08.360Z,7.67
2018-06-17T18:36:37.620Z,10.00
2018-06-17T18:39:08.409Z,8.23
2018-06-17T18:41:37.629Z,9.60
2018-06-17T18:44:06.878Z,8.60
2018-06-17T18:46:36.121Z,8.70
2018-06-17T18:49:05.403Z,7.97
2018-06-17T18:51:34.658Z,8.68
2018-06-17T18:54:03.936Z,8.83
2018-06-17T18:56:33.142Z,8.07
2018-06-17T18:59:02.410Z,8.50
2018-06-17T19:01:31.690Z,10.00
2018-06-17T19:04:00.893Z,9.47
2018-06-17T19:06:30.090Z,9.33
2018-06-17T19:09:04.664Z,12.43
2018-06-17T19:11:39.195Z,9.13
2018-06-17T19:14:13.503Z,11.17
2018-06-17T19:16:48.765Z,10.40
2018-06-17T19:19:18.047Z,14.63
2018-06-17T19:21:47.369Z,9.80
2018-06-17T19:24:16.868Z,11.70
2018-06-17T19:26:46.163Z,10.20
2018-06-17T19:29:15.349Z,11.53
2018-06-17T19:31:44.704Z,11.23
2018-06-17T19:34:14.030Z,10.10
2018-06-17T19:36:43.302Z,9.80
2018-06-17T19:39:12.918Z,8.03
2018-06-17T19:41:42.122Z,8.17
2018-06-17T19:44:11.278Z,9.20
2018-06-17T19:46:40.511Z,7.67
2018-06-17T19:49:09.786Z,7.97
2018-06-17T19:51:44.247Z,6.73
2018-06-17T19:54:18.787Z,11.53
2018-06-17T19:56:53.173Z,6.10
2018-06-17T19:59:27.550Z,6.97
2018-06-17T20:01:56.729Z,7.30
2018-06-17T20:04:31.600Z,6.17
2018-06-17T20:07:03.275Z,14.43
2018-06-17T20:09:36.253Z,8.70
2018-06-17T20:12:06.936Z,10.70
2018-06-17T20:14:36.063Z,10.80
2018-06-17T20:17:05.257Z,10.70
2018-06-17T20:19:34.581Z,15.30
2018-06-17T20:22:03.740Z,10.53
2018-06-17T20:24:32.990Z,10.13
2018-06-17T20:27:02.204Z,13.70
2018-06-17T20:29:31.612Z,12.90
2018-06-17T20:32:05.978Z,26.83
2018-06-17T20:34:40.225Z,14.68
2018-06-17T20:37:14.645Z,11.70
2018-06-17T20:39:49.007Z,11.07
2018-06-17T20:42:23.743Z,12.90
2018-06-17T20:44:52.969Z,14.70
2018-06-17T20:47:22.137Z,15.07
2018-06-17T20:49:51.366Z,13.40
2018-06-17T20:52:20.588Z,18.13
2018-06-17T20:54:50.250Z,13.50
2018-06-17T20:57:19.447Z,16.37
2018-06-17T20:59:48.636Z,20.27
2018-06-17T21:02:17.863Z,19.40
2018-06-17T21:04:47.142Z,17.50
2018-06-17T21:07:16.263Z,17.50
2018-06-17T21:09:45.444Z,15.53
2018-06-17T21:12:14.630Z,18.63
2018-06-17T21:14:43.790Z,15.03
2018-06-17T21:17:13.057Z,16.70
2018-06-17T21:19:47.437Z,16.13
2018-06-17T21:22:21.841Z,14.40
2018-06-17T21:24:56.291Z,30.60
2018-06-17T21:27:30.793Z,12.88
2018-06-17T21:30:00.083Z,12.33
2018-06-17T21:32:29.238Z,12.80
2018-06-17T21:34:58.402Z,11.97
2018-06-17T21:37:27.570Z,12.58
2018-06-17T21:39:56.707Z,13.73
2018-06-17T21:42:25.969Z,13.50
2018-06-17T21:44:55.122Z,12.28
2018-06-17T21:47:24.266Z,11.73
2018-06-17T21:49:53.878Z,11.90
2018-06-17T21:52:23.029Z,11.77
2018-06-17T21:54:52.165Z,12.43
2018-06-17T21:57:21.310Z,12.45
2018-06-17T21:59:50.498Z,13.40
2018-06-17T22:02:19.719Z,14.37
2018-06-17T22:04:48.958Z,15.93
2018-06-17T22:07:18.108Z,15.00
2018-06-17T22:09:52.373Z,16.43
2018-06-17T22:12:26.788Z,15.50
2018-06-17T22:15:01.133Z,17.87
2018-06-17T22:17:35.421Z,16.03
2018-06-17T22:20:05.036Z,17.43
2018-06-17T22:22:34.137Z,15.50
2018-06-17T22:25:03.266Z,16.25
2018-06-17T22:27:32.426Z,17.63
2018-06-17T22:30:01.507Z,13.87
2018-06-17T22:32:30.737Z,15.07
2018-06-17T22:35:00.594Z,14.60
2018-06-17T22:37:29.710Z,15.57
2018-06-17T22:39:58.866Z,18.07
2018-06-17T22:42:27.965Z,16.50
2018-06-17T22:44:57.091Z,16.90
2018-06-17T22:47:31.414Z,16.97
2018-06-17T22:50:00.549Z,19.33
2018-06-17T22:52:29.825Z,24.47
2018-06-17T22:54:59.009Z,19.40
2018-06-17T22:57:33.471Z,13.93
2018-06-17T23:00:07.784Z,15.90
2018-06-17T23:02:42.154Z,13.63
2018-06-17T23:05:16.638Z,13.30
2018-06-17T23:08:53.539Z,13.53
2018-06-17T23:11:22.871Z,17.60
2018-06-17T23:13:52.058Z,21.70
2018-06-17T23:16:21.194Z,23.70
2018-06-17T23:18:50.500Z,19.20
2018-06-17T23:21:20.013Z,19.80
2018-06-17T23:23:49.169Z,18.40
2018-06-17T23:26:18.367Z,19.70
2018-06-17T23:28:47.567Z,21.67
2018-06-17T23:31:16.798Z,27.62
2018-06-17T23:33:45.949Z,21.13
2018-06-17T23:36:15.108Z,22.67
2018-06-17T23:38:44.249Z,20.88
2018-06-17T23:41:15.846Z,25.30
2018-06-17T23:43:46.772Z,18.83
2018-06-17T23:46:21.254Z,21.27
2018-06-17T23:48:55.673Z,22.37
2018-06-17T23:51:30.148Z,20.90
2018-06-17T23:54:04.512Z,33.87
2018-06-17T23:56:35.386Z,25.97
2018-06-17T23:59:04.576Z,22.93
